createdAt,value
2018-05-10T00:02:43.819Z,12.07
2018-05-10T00:05:53.561Z,12.32
2018-05-10T00:09:03.434Z,10.15
2018-05-10T00:12:13.210Z,13.00
2018-05-10T00:15:23.560Z,13.18
2018-05-10T00:18:33.875Z,13.43
2018-05-10T00:21:43.710Z,11.10
2018-05-10T00:24:54.582Z,11.45
2018-05-10T00:28:04.940Z,14.10
2018-05-10T00:31:15.705Z,11.45
2018-05-10T00:34:26.318Z,13.38
2018-05-10T00:37:36.873Z,14.07
2018-05-10T00:40:49.113Z,13.38
2018-05-10T00:43:59.438Z,12.82
2018-05-10T00:47:10.488Z,13.65
2018-05-10T00:50:20.465Z,12.68
2018-05-10T00:53:30.886Z,12.15
2018-05-10T00:56:40.816Z,11.12
2018-05-10T00:59:50.625Z,15.13
2018-05-10T01:03:01.516Z,12.48
2018-05-10T01:06:11.791Z,12.35
2018-05-10T01:09:21.536Z,13.02
2018-05-10T01:12:32.301Z,12.48
2018-05-10T01:15:42.428Z,12.55
2018-05-10T01:18:52.737Z,15.00
2018-05-10T01:22:02.985Z,12.23
2018-05-10T01:25:14.138Z,11.50
2018-05-10T01:28:23.985Z,10.45
2018-05-10T01:31:33.806Z,10.18
2018-05-10T01:34:55.616Z,16.70
2018-05-10T01:38:06.286Z,16.35
2018-05-10T01:41:16.424Z,12.30
2018-05-10T01:44:26.360Z,15.13
2018-05-10T01:47:36.170Z,14.65
2018-05-10T01:50:45.966Z,12.75
2018-05-10T01:53:56.100Z,13.90
2018-05-10T01:57:06.684Z,11.80
2018-05-10T02:00:18.046Z,17.55
2018-05-10T02:03:28.830Z,16.77
2018-05-10T02:06:39.408Z,16.20
2018-05-10T02:09:49.463Z,13.48
2018-05-10T02:13:01.070Z,13.65
2018-05-10T02:16:11.046Z,14.85
2018-05-10T02:19:22.308Z,12.82
2018-05-10T02:22:32.180Z,14.35
2018-05-10T02:25:42.224Z,16.73
2018-05-10T02:28:52.284Z,15.98
2018-05-10T02:32:02.621Z,14.18
2018-05-10T02:35:12.816Z,15.55
2018-05-10T02:38:23.176Z,16.67
2018-05-10T02:41:33.078Z,12.18
2018-05-10T02:44:43.515Z,14.13
2018-05-10T02:47:53.956Z,16.02
2018-05-10T02:51:04.636Z,13.88
2018-05-10T02:54:15.050Z,16.55
2018-05-10T02:57:25.496Z,16.00
2018-05-10T03:00:35.643Z,16.52
2018-05-10T03:03:46.506Z,15.02
2018-05-10T03:06:56.368Z,14.02
2018-05-10T03:10:06.759Z,14.57
2018-05-10T03:13:17.453Z,14.05
2018-05-10T03:16:27.737Z,18.52
2018-05-10T03:19:37.694Z,12.98
2018-05-10T03:22:48.104Z,13.45
2018-05-10T03:25:58.052Z,13.02
2018-05-10T03:29:08.699Z,13.75
2018-05-10T03:32:18.492Z,17.00
2018-05-10T03:35:28.616Z,15.77
2018-05-10T03:38:38.948Z,17.87
2018-05-10T03:41:48.920Z,13.75
2018-05-10T03:45:00.017Z,15.77
2018-05-10T03:48:10.910Z,13.73
2018-05-10T03:51:21.021Z,18.85
2018-05-10T03:54:31.320Z,16.50
2018-05-10T03:57:41.118Z,15.82
2018-05-10T04:00:51.423Z,17.45
2018-05-10T04:04:28.025Z,14.93
2018-05-10T04:07:49.310Z,16.60
2018-05-10T04:11:11.336Z,15.35
2018-05-10T04:14:21.714Z,14.35
2018-05-10T04:17:32.359Z,14.90
2018-05-10T04:20:42.619Z,15.13
2018-05-10T04:23:53.210Z,14.45
2018-05-10T04:27:04.581Z,13.75
2018-05-10T04:30:14.379Z,12.70
2018-05-10T04:33:24.888Z,18.37
2018-05-10T04:36:34.789Z,15.93
2018-05-10T04:39:46.365Z,18.92
2018-05-10T04:42:56.555Z,14.38
2018-05-10T04:46:06.504Z,17.50
2018-05-10T04:49:16.523Z,13.62
2018-05-10T04:52:26.409Z,17.58
2018-05-10T04:55:36.305Z,17.58
2018-05-10T04:58:47.918Z,16.83
2018-05-10T05:01:58.442Z,14.57
2018-05-10T05:05:10.238Z,13.88
2018-05-10T05:08:20.625Z,18.33
2018-05-10T05:11:31.377Z,19.37
2018-05-10T05:14:41.569Z,18.87
2018-05-10T05:17:51.667Z,14.23
2018-05-10T05:21:01.977Z,16.52
2018-05-10T05:24:12.017Z,17.10
2018-05-10T05:27:22.068Z,16.48
2018-05-10T05:30:31.953Z,15.85
2018-05-10T05:33:42.577Z,14.00
2018-05-10T05:36:52.697Z,18.48
2018-05-10T05:40:02.600Z,13.88
2018-05-10T05:43:13.725Z,19.50
2018-05-10T05:46:24.765Z,16.55
2018-05-10T05:49:35.299Z,17.20
2018-05-10T05:52:45.606Z,14.87
2018-05-10T05:55:56.156Z,18.87
2018-05-10T05:59:06.866Z,15.32
2018-05-10T06:02:16.864Z,16.23
2018-05-10T06:05:28.187Z,14.80
2018-05-10T06:08:38.789Z,16.30
2018-05-10T06:11:49.442Z,15.32
2018-05-10T06:14:59.267Z,16.48
2018-05-10T06:18:10.551Z,15.65
2018-05-10T06:21:21.130Z,15.45
2018-05-10T06:24:31.652Z,17.90
2018-05-10T06:27:41.870Z,15.50
2018-05-10T06:30:52.471Z,12.88
2018-05-10T06:34:02.844Z,13.85
2018-05-10T06:37:14.411Z,15.80
2018-05-10T06:40:24.881Z,14.73
2018-05-10T06:43:34.814Z,14.43
2018-05-10T06:46:45.045Z,11.90
2018-05-10T06:49:54.920Z,12.10
2018-05-10T06:53:05.588Z,12.30
2018-05-10T06:56:16.078Z,12.30
2018-05-10T06:59:27.455Z,11.95
2018-05-10T07:02:37.754Z,12.48
2018-05-10T07:05:50.962Z,13.98
2018-05-10T07:09:02.014Z,11.12
2018-05-10T07:12:12.594Z,13.57
2018-05-10T07:15:23.312Z,10.15
2018-05-10T07:18:33.953Z,10.60
2018-05-10T07:21:45.098Z,9.15
2018-05-10T07:24:55.701Z,13.02
2018-05-10T07:28:06.098Z,10.60
2018-05-10T07:31:16.628Z,12.30
2018-05-10T07:34:26.958Z,11.50
2018-05-10T07:37:37.207Z,26.52
2018-05-10T07:40:47.261Z,8.95
2018-05-10T07:43:57.437Z,10.07
2018-05-10T07:47:07.598Z,13.38
2018-05-10T07:50:17.567Z,11.68
2018-05-10T07:53:28.133Z,10.05
2018-05-10T07:56:38.040Z,11.90
2018-05-10T07:59:48.205Z,9.35
2018-05-10T08:02:58.181Z,12.30
2018-05-10T08:06:09.163Z,10.23
2018-05-10T08:09:20.422Z,12.45
2018-05-10T08:12:30.246Z,9.95
2018-05-10T08:15:40.485Z,11.05
2018-05-10T08:18:51.072Z,10.40
2018-05-10T08:22:01.549Z,8.98
2018-05-10T08:25:12.216Z,9.10
2018-05-10T08:28:22.253Z,9.70
2018-05-10T08:31:32.889Z,9.43
2018-05-10T08:34:42.589Z,8.90
2018-05-10T08:37:53.817Z,9.57
2018-05-10T08:41:03.350Z,9.93
2018-05-10T08:44:13.562Z,8.87
2018-05-10T08:47:23.066Z,6.27
2018-05-10T08:50:33.786Z,8.52
2018-05-10T08:53:43.457Z,6.60
2018-05-10T08:56:53.366Z,9.90
2018-05-10T09:00:04.281Z,11.23
2018-05-10T09:03:15.016Z,11.23
2018-05-10T09:06:25.715Z,10.70
2018-05-10T09:09:35.706Z,8.97
2018-05-10T09:12:45.530Z,12.73
2018-05-10T09:15:55.897Z,10.63
2018-05-10T09:19:06.578Z,9.80
2018-05-10T09:22:17.472Z,6.70
2018-05-10T09:25:27.904Z,7.90
2018-05-10T09:28:38.306Z,8.73
2018-05-10T09:31:48.585Z,11.63
2018-05-10T09:34:58.483Z,6.67
2018-05-10T09:38:08.638Z,8.77
2018-05-10T09:41:19.134Z,8.17
2018-05-10T09:44:29.160Z,7.80
2018-05-10T09:47:39.698Z,11.10
2018-05-10T09:50:49.232Z,9.40
2018-05-10T09:53:59.156Z,7.20
2018-05-10T09:57:08.773Z,8.17
2018-05-10T10:00:24.802Z,7.40
2018-05-10T10:03:34.743Z,8.63
2018-05-10T10:06:44.912Z,6.53
2018-05-10T10:09:54.825Z,5.80
2018-05-10T10:13:05.183Z,7.17
2018-05-10T10:16:14.807Z,5.87
2018-05-10T10:19:25.033Z,5.67
2018-05-10T10:22:34.894Z,6.27
2018-05-10T10:25:45.199Z,9.83
2018-05-10T10:28:56.044Z,8.00
2018-05-10T10:32:05.478Z,6.90
2018-05-10T10:35:15.662Z,7.23
2018-05-10T10:38:25.351Z,9.07
2018-05-10T10:41:35.166Z,5.90
2018-05-10T10:44:45.569Z,7.63
2018-05-10T10:47:56.414Z,7.20
2018-05-10T10:51:06.637Z,7.20
2018-05-10T10:54:16.921Z,7.97
2018-05-10T10:57:26.473Z,6.03
2018-05-10T11:00:36.045Z,7.53
2018-05-10T11:03:46.420Z,6.77
2018-05-10T11:06:56.534Z,9.13
2018-05-10T11:10:07.386Z,6.97
2018-05-10T11:13:17.085Z,7.60
2018-05-10T11:16:27.261Z,7.87
2018-05-10T11:19:37.576Z,8.83
2018-05-10T11:22:47.176Z,7.33
2018-05-10T11:25:57.366Z,7.67
2018-05-10T11:29:07.795Z,6.83
2018-05-10T11:32:18.112Z,8.13
2018-05-10T11:35:28.045Z,8.43
2018-05-10T11:38:37.552Z,7.60
2018-05-10T11:41:47.131Z,5.23
2018-05-10T11:44:56.776Z,6.90
2018-05-10T11:48:07.087Z,7.50
2018-05-10T11:51:16.750Z,7.90
2018-05-10T11:54:27.989Z,7.87
2018-05-10T11:57:38.248Z,7.67
2018-05-10T12:00:48.244Z,5.77
2018-05-10T12:03:58.398Z,5.70
2018-05-10T12:07:08.883Z,4.87
2018-05-10T12:10:18.908Z,5.57
2018-05-10T12:13:29.677Z,5.97
2018-05-10T12:16:39.745Z,5.53
2018-05-10T12:19:49.705Z,5.73
2018-05-10T12:23:00.160Z,6.40
2018-05-10T12:26:09.878Z,5.80
2018-05-10T12:29:20.271Z,4.80
2018-05-10T12:32:29.980Z,6.90
2018-05-10T12:35:40.289Z,6.37
2018-05-10T12:38:49.902Z,9.87
2018-05-10T12:41:59.473Z,7.10
2018-05-10T12:45:09.977Z,7.70
2018-05-10T12:48:19.537Z,9.37
2018-05-10T12:51:29.822Z,7.97
2018-05-10T12:54:40.531Z,8.35
2018-05-10T12:57:51.273Z,10.32
2018-05-10T13:01:01.930Z,7.25
2018-05-10T13:04:12.031Z,10.23
2018-05-10T13:07:23.652Z,7.03
2018-05-10T13:10:34.381Z,9.35
2018-05-10T13:13:45.574Z,8.85
2018-05-10T13:16:55.441Z,8.13
2018-05-10T13:20:05.984Z,9.20
2018-05-10T13:23:16.216Z,8.73
2018-05-10T13:26:27.365Z,7.85
2018-05-10T13:29:37.820Z,6.75
2018-05-10T13:32:47.693Z,8.65
2018-05-10T13:35:59.003Z,9.40
2018-05-10T13:39:08.763Z,9.52
2018-05-10T13:42:20.550Z,11.07
2018-05-10T13:45:31.064Z,9.75
2018-05-10T13:48:41.897Z,8.02
2018-05-10T13:51:51.956Z,7.90
2018-05-10T13:55:02.798Z,8.55
2018-05-10T13:58:12.997Z,7.85
2018-05-10T14:01:22.967Z,7.40
2018-05-10T14:04:33.205Z,7.05
2018-05-10T14:07:43.357Z,10.05
2018-05-10T14:10:54.966Z,9.95
2018-05-10T14:14:05.394Z,8.35
2018-05-10T14:17:16.326Z,7.85
2018-05-10T14:20:27.308Z,8.00
2018-05-10T14:23:37.467Z,9.00
2018-05-10T14:26:47.773Z,8.63
2018-05-10T14:29:58.938Z,8.35
2018-05-10T14:33:09.482Z,7.25
2018-05-10T14:36:19.991Z,9.77
2018-05-10T14:39:29.520Z,6.57
2018-05-10T14:42:40.081Z,7.32
2018-05-10T14:45:50.762Z,7.10
2018-05-10T14:49:00.742Z,7.55
2018-05-10T14:52:10.841Z,7.28
2018-05-10T14:55:21.264Z,7.68
2018-05-10T14:58:31.578Z,6.10
2018-05-10T15:01:41.948Z,5.77
2018-05-10T15:04:52.008Z,4.53
2018-05-10T15:08:02.756Z,5.60
2018-05-10T15:11:13.275Z,3.90
2018-05-10T15:14:23.464Z,4.17
2018-05-10T15:17:33.762Z,5.10
2018-05-10T15:20:43.489Z,5.67
2018-05-10T15:23:53.368Z,6.27
2018-05-10T15:27:03.752Z,4.80
2018-05-10T15:30:13.461Z,4.40
2018-05-10T15:33:22.973Z,4.33
2018-05-10T15:36:33.181Z,5.53
2018-05-10T15:39:43.629Z,4.37
2018-05-10T15:42:53.837Z,3.80
2018-05-10T15:46:04.664Z,4.47
2018-05-10T15:49:14.238Z,6.23
2018-05-10T15:52:24.492Z,5.10
2018-05-10T15:55:35.438Z,4.80
2018-05-10T15:58:45.729Z,4.60
2018-05-10T16:01:56.167Z,5.27
2018-05-10T16:05:05.857Z,4.67
2018-05-10T16:08:17.292Z,4.13
2018-05-10T16:11:27.967Z,5.97
2018-05-10T16:14:37.813Z,4.22
2018-05-10T16:17:48.217Z,4.47
2018-05-10T16:20:58.948Z,4.10
2018-05-10T16:24:08.658Z,5.80
2018-05-10T16:27:19.737Z,3.00
2018-05-10T16:30:30.004Z,3.37
2018-05-10T16:33:41.701Z,3.22
2018-05-10T16:36:52.307Z,3.28
2018-05-10T16:40:02.916Z,4.37
2018-05-10T16:43:12.770Z,6.00
2018-05-10T16:46:23.482Z,4.60
2018-05-10T16:49:33.775Z,3.20
2018-05-10T16:52:43.646Z,3.42
2018-05-10T16:55:53.704Z,3.72
2018-05-10T16:59:04.111Z,3.50
2018-05-10T17:02:14.294Z,3.40
2018-05-10T17:05:24.487Z,2.55
2018-05-10T17:08:34.943Z,3.95
2018-05-10T17:11:45.175Z,3.90
2018-05-10T17:14:55.110Z,4.07
2018-05-10T17:18:04.650Z,3.60
2018-05-10T17:21:15.045Z,2.83
2018-05-10T17:24:24.680Z,2.70
2018-05-10T17:27:35.209Z,3.53
2018-05-10T17:30:45.270Z,3.85
2018-05-10T17:33:55.695Z,2.83
2018-05-10T17:37:05.576Z,3.10
2018-05-10T17:40:15.510Z,3.55
2018-05-10T17:43:26.099Z,4.45
2018-05-10T17:46:36.754Z,7.78
2018-05-10T17:49:46.814Z,4.68
2018-05-10T17:52:57.021Z,5.15
2018-05-10T17:56:06.817Z,3.55
2018-05-10T17:59:16.577Z,4.57
2018-05-10T18:02:27.916Z,3.45
2018-05-10T18:05:38.371Z,3.42
2018-05-10T18:08:49.430Z,3.17
2018-05-10T18:11:59.997Z,4.55
2018-05-10T18:15:10.197Z,3.78
2018-05-10T18:18:20.731Z,3.28
2018-05-10T18:21:30.637Z,3.45
2018-05-10T18:24:41.086Z,2.55
2018-05-10T18:27:51.915Z,5.20
2018-05-10T18:31:02.068Z,4.43
2018-05-10T18:34:12.745Z,5.10
2018-05-10T18:37:22.813Z,4.45
2018-05-10T18:40:34.251Z,3.75
2018-05-10T18:43:45.550Z,7.28
2018-05-10T18:46:56.267Z,4.20
2018-05-10T18:50:07.099Z,4.60
2018-05-10T18:53:17.019Z,5.97
2018-05-10T18:56:27.249Z,4.22
2018-05-10T18:59:37.058Z,5.47
2018-05-10T19:02:46.816Z,4.05
2018-05-10T19:05:57.010Z,5.10
2018-05-10T19:09:06.974Z,5.82
2018-05-10T19:12:16.968Z,5.87
2018-05-10T19:15:27.557Z,7.72
2018-05-10T19:18:37.493Z,6.43
2018-05-10T19:21:47.892Z,7.25
2018-05-10T19:24:58.040Z,6.40
2018-05-10T19:28:07.566Z,6.95
2018-05-10T19:31:17.449Z,6.45
2018-05-10T19:34:27.930Z,10.85
2018-05-10T19:37:38.298Z,13.10
2018-05-10T19:40:48.119Z,12.75
2018-05-10T19:43:59.360Z,13.68
2018-05-10T19:47:09.185Z,15.10
2018-05-10T19:50:19.575Z,15.93
2018-05-10T19:53:29.427Z,24.08
2018-05-10T19:56:39.794Z,19.05
2018-05-10T19:59:50.421Z,20.40
2018-05-10T20:03:00.829Z,20.73
2018-05-10T20:06:11.376Z,25.10
2018-05-10T20:09:21.696Z,28.80
2018-05-10T20:12:32.600Z,21.62
2018-05-10T20:15:42.995Z,25.05
2018-05-10T20:18:53.371Z,27.83
2018-05-10T20:22:03.827Z,19.40
2018-05-10T20:25:13.726Z,32.33
2018-05-10T20:28:24.466Z,30.23
2018-05-10T20:31:34.634Z,34.53
2018-05-10T20:34:45.394Z,25.80
2018-05-10T20:37:56.566Z,31.17
2018-05-10T20:41:06.934Z,21.85
2018-05-10T20:44:16.750Z,36.70
2018-05-10T20:47:26.934Z,26.15
2018-05-10T20:50:36.844Z,37.42
2018-05-10T20:53:46.849Z,36.85
2018-05-10T20:56:56.973Z,37.05
2018-05-10T21:00:06.534Z,39.70
2018-05-10T21:03:16.673Z,30.77
2018-05-10T21:06:26.904Z,37.38
2018-05-10T21:09:37.272Z,37.13
2018-05-10T21:12:47.229Z,39.20
2018-05-10T21:15:57.074Z,31.27
2018-05-10T21:19:08.461Z,27.20
2018-05-10T21:22:18.602Z,26.98
2018-05-10T21:25:28.847Z,27.17
2018-05-10T21:28:39.546Z,28.27
2018-05-10T21:31:50.777Z,17.58
2018-05-10T21:35:00.835Z,18.42
2018-05-10T21:38:11.036Z,30.55
2018-05-10T21:41:21.347Z,23.58
2018-05-10T21:44:32.056Z,22.58
2018-05-10T21:47:41.801Z,17.73
2018-05-10T21:50:51.611Z,26.87
2018-05-10T21:54:02.330Z,15.18
2018-05-10T21:57:12.509Z,44.25
2018-05-10T22:00:22.054Z,25.85
2018-05-10T22:03:32.951Z,18.37
2018-05-10T22:06:43.085Z,20.37
2018-05-10T22:09:53.490Z,15.07
2018-05-10T22:13:03.061Z,21.73
2018-05-10T22:16:13.237Z,14.73
2018-05-10T22:19:23.841Z,14.98
2018-05-10T22:22:34.026Z,21.05
2018-05-10T22:25:44.362Z,21.27
2018-05-10T22:28:55.351Z,15.80
2018-05-10T22:32:05.977Z,20.25
2018-05-10T22:35:16.180Z,20.80
2018-05-10T22:38:26.474Z,16.92
2018-05-10T22:41:36.455Z,19.70
2018-05-10T22:44:46.537Z,23.35
2018-05-10T22:47:56.593Z,19.20
2018-05-10T22:51:06.716Z,22.30
2018-05-10T22:54:16.892Z,19.98
2018-05-10T22:57:28.242Z,25.98
2018-05-10T23:00:38.655Z,24.52
2018-05-10T23:03:49.089Z,18.85
2018-05-10T23:06:58.862Z,20.55
2018-05-10T23:10:09.841Z,22.35
2018-05-10T23:13:19.833Z,21.42
2018-05-10T23:16:29.727Z,18.08
2018-05-10T23:19:39.681Z,21.25
2018-05-10T23:22:49.565Z,24.20
2018-05-10T23:25:59.560Z,22.10
2018-05-10T23:29:10.263Z,24.52
2018-05-10T23:32:20.474Z,24.55
2018-05-10T23:35:30.380Z,19.77
2018-05-10T23:38:41.278Z,19.73
2018-05-10T23:41:51.118Z,19.85
2018-05-10T23:45:01.091Z,19.50
2018-05-10T23:48:12.206Z,25.52
2018-05-10T23:51:22.235Z,23.38
2018-05-10T23:54:32.225Z,19.87
2018-05-10T23:57:43.188Z,23.70
